createdAt,value
2023-01-25T00:03:48.773Z,3.33
2023-01-25T00:07:50.468Z,3.29
2023-01-25T00:11:53.276Z,3.20
2023-01-25T00:16:02.980Z,3.15
2023-01-25T00:20:05.186Z,3.10
2023-01-25T00:24:07.800Z,3.09
2023-01-25T00:28:09.339Z,3.13
2023-01-25T00:32:11.235Z,3.17
2023-01-25T00:36:33.637Z,3.19
2023-01-25T00:40:35.311Z,3.20
2023-01-25T00:44:38.011Z,3.22
2023-01-25T00:48:39.773Z,3.16
2023-01-25T00:52:41.934Z,3.17
2023-01-25T00:56:43.669Z,3.20
2023-01-25T01:00:45.467Z,3.23
2023-01-25T01:04:47.251Z,3.27
2023-01-25T01:08:49.299Z,3.31
2023-01-25T01:12:51.323Z,3.31
2023-01-25T01:16:52.999Z,3.31
2023-01-25T01:20:55.178Z,3.33
2023-01-25T01:24:56.739Z,3.32
2023-01-25T01:28:59.035Z,3.31
2023-01-25T01:33:01.144Z,3.26
2023-01-25T01:37:03.458Z,3.18
2023-01-25T01:41:05.320Z,3.17
2023-01-25T01:46:01.529Z,3.16
2023-01-25T01:50:21.234Z,3.06
2023-01-25T01:54:31.492Z,3.06
2023-01-25T01:58:33.911Z,3.08
2023-01-25T02:02:35.870Z,3.04
2023-01-25T02:07:00.158Z,3.04
2023-01-25T02:11:03.391Z,3.04
2023-01-25T02:15:07.137Z,3.03
2023-01-25T02:19:13.177Z,3.02
2023-01-25T02:23:52.118Z,3.07
2023-01-25T02:28:05.744Z,3.04
2023-01-25T02:32:07.545Z,3.03
2023-01-25T02:36:09.159Z,3.03
2023-01-25T02:40:11.943Z,3.02
2023-01-25T02:44:21.392Z,3.05
2023-01-25T02:48:23.011Z,3.03
2023-01-25T02:52:25.034Z,3.04
2023-01-25T02:56:27.335Z,3.03
2023-01-25T03:00:29.087Z,3.04
2023-01-25T03:04:30.663Z,3.02
2023-01-25T03:08:33.831Z,3.01
2023-01-25T03:12:35.989Z,3.01
2023-01-25T03:16:37.737Z,3.00
2023-01-25T03:20:40.836Z,2.99
2023-01-25T03:24:42.661Z,2.96
2023-01-25T03:28:45.682Z,2.94
2023-01-25T03:32:47.376Z,2.93
2023-01-25T03:36:53.987Z,2.88
2023-01-25T03:40:56.069Z,2.85
2023-01-25T03:44:58.542Z,2.80
2023-01-25T03:49:00.713Z,2.81
2023-01-25T03:53:07.233Z,2.83
2023-01-25T03:57:09.018Z,2.84
2023-01-25T04:01:20.820Z,2.84
2023-01-25T04:05:22.536Z,2.79
2023-01-25T04:09:24.195Z,2.75
2023-01-25T04:13:29.650Z,2.71
2023-01-25T04:17:31.385Z,2.71
2023-01-25T04:21:41.058Z,2.73
2023-01-25T04:25:42.931Z,2.77
2023-01-25T04:29:48.634Z,2.72
2023-01-25T04:33:55.724Z,2.70
2023-01-25T04:37:59.599Z,2.59
2023-01-25T04:42:08.795Z,2.54
2023-01-25T04:46:10.862Z,2.53
2023-01-25T04:50:12.672Z,2.53
2023-01-25T04:54:14.302Z,2.56
2023-01-25T04:58:16.170Z,2.59
2023-01-25T05:02:18.867Z,2.57
2023-01-25T05:06:20.514Z,2.48
2023-01-25T05:10:23.290Z,2.47
2023-01-25T05:14:44.832Z,2.47
2023-01-25T05:18:49.282Z,2.42
2023-01-25T05:23:02.634Z,2.42
2023-01-25T05:27:05.746Z,2.40
2023-01-25T05:31:25.884Z,2.42
2023-01-25T05:35:27.844Z,2.40
2023-01-25T05:39:31.222Z,2.36
2023-01-25T05:43:32.933Z,2.33
2023-01-25T05:47:37.273Z,2.28
2023-01-25T05:51:39.654Z,2.28
2023-01-25T05:55:41.711Z,2.31
2023-01-25T05:59:50.223Z,2.18
2023-01-25T06:03:54.429Z,2.23
2023-01-25T06:07:58.276Z,2.25
2023-01-25T06:12:06.170Z,2.31
2023-01-25T06:16:09.077Z,2.37
2023-01-25T06:20:16.877Z,2.38
2023-01-25T06:24:34.747Z,2.24
2023-01-25T06:28:37.645Z,2.17
2023-01-25T06:32:39.476Z,2.16
2023-01-25T06:36:41.023Z,2.17
2023-01-25T06:40:42.591Z,2.21
2023-01-25T06:44:44.189Z,2.20
2023-01-25T06:48:45.894Z,2.18
2023-01-25T06:52:52.613Z,2.17
2023-01-25T06:56:54.208Z,2.22
2023-01-25T07:01:04.584Z,2.21
2023-01-25T07:05:06.967Z,2.23
2023-01-25T07:09:10.176Z,2.28
2023-01-25T07:13:12.810Z,2.36
2023-01-25T07:17:14.479Z,2.40
2023-01-25T07:21:23.827Z,2.37
2023-01-25T07:25:25.485Z,2.38
2023-01-25T07:29:27.155Z,2.41
2023-01-25T07:33:28.848Z,2.42
2023-01-25T07:37:30.465Z,2.40
2023-01-25T07:41:33.474Z,2.37
2023-01-25T07:45:35.640Z,2.42
2023-01-25T07:49:37.756Z,2.48
2023-01-25T07:53:40.827Z,2.51
2023-01-25T07:57:42.601Z,2.47
2023-01-25T08:01:44.231Z,2.46
2023-01-25T08:05:47.371Z,2.44
2023-01-25T08:09:50.680Z,2.50
2023-01-25T08:13:52.488Z,2.51
2023-01-25T08:18:00.258Z,2.55
2023-01-25T08:22:02.059Z,2.55
2023-01-25T08:26:07.054Z,2.57
2023-01-25T08:30:09.420Z,2.58
2023-01-25T08:34:15.216Z,2.64
2023-01-25T08:38:17.054Z,2.63
2023-01-25T08:42:21.533Z,2.62
2023-01-25T08:46:25.694Z,2.67
2023-01-25T08:50:27.347Z,2.55
2023-01-25T08:54:29.032Z,2.44
2023-01-25T08:58:31.876Z,2.44
2023-01-25T09:02:33.447Z,2.52
2023-01-25T09:06:35.135Z,2.44
2023-01-25T09:10:37.592Z,2.52
2023-01-25T09:14:40.383Z,2.56
2023-01-25T09:18:43.376Z,2.54
2023-01-25T09:22:45.208Z,2.49
2023-01-25T09:26:55.979Z,2.54
2023-01-25T09:31:20.297Z,2.63
2023-01-25T09:35:47.711Z,2.68
2023-01-25T09:39:49.247Z,2.63
2023-01-25T09:44:14.538Z,2.58
2023-01-25T09:48:34.482Z,2.62
2023-01-25T09:53:10.057Z,2.59
2023-01-25T09:57:18.977Z,2.59
2023-01-25T10:01:46.914Z,2.51
2023-01-25T10:05:53.879Z,2.55
2023-01-25T10:10:07.600Z,2.60
2023-01-25T10:14:15.776Z,2.69
2023-01-25T10:18:46.447Z,2.77
2023-01-25T10:23:08.518Z,2.74
2023-01-25T10:27:37.361Z,2.73
2023-01-25T10:31:53.333Z,2.72
2023-01-25T10:35:55.775Z,2.75
2023-01-25T10:40:06.775Z,2.81
2023-01-25T10:44:22.079Z,2.85
2023-01-25T10:48:29.961Z,2.79
2023-01-25T10:52:33.155Z,2.77
2023-01-25T10:56:35.624Z,2.84
2023-01-25T11:00:41.421Z,2.89
2023-01-25T11:04:47.160Z,2.90
2023-01-25T11:08:51.692Z,3.00
2023-01-25T11:13:21.624Z,3.01
2023-01-25T11:17:31.957Z,2.96
2023-01-25T11:21:34.890Z,2.99
2023-01-25T11:25:36.577Z,2.95
2023-01-25T11:29:38.515Z,3.01
2023-01-25T11:33:41.896Z,3.00
2023-01-25T11:38:05.856Z,2.90
2023-01-25T11:42:25.785Z,2.70
2023-01-25T11:46:34.517Z,2.72
2023-01-25T11:50:55.868Z,2.58
2023-01-25T11:55:06.592Z,2.56
2023-01-25T11:59:44.102Z,2.55
2023-01-25T12:04:12.207Z,2.61
2023-01-25T12:08:54.789Z,2.59
2023-01-25T12:13:30.409Z,2.51
2023-01-25T12:17:57.720Z,2.50
2023-01-25T12:22:32.562Z,2.68
2023-01-25T12:26:48.878Z,2.72
2023-01-25T12:30:56.730Z,2.82
2023-01-25T12:35:16.723Z,2.73
2023-01-25T12:39:24.757Z,2.79
2023-01-25T12:43:40.094Z,2.85
2023-01-25T12:47:57.065Z,2.72
2023-01-25T12:52:11.857Z,2.70
2023-01-25T12:56:35.084Z,2.71
2023-01-25T13:00:55.705Z,2.63
2023-01-25T13:05:13.614Z,2.56
2023-01-25T13:09:31.197Z,2.49
2023-01-25T13:13:33.427Z,2.58
2023-01-25T13:17:40.443Z,2.68
2023-01-25T13:21:45.338Z,2.61
2023-01-25T13:25:47.034Z,2.47
2023-01-25T13:29:55.789Z,2.49
2023-01-25T13:34:00.374Z,2.54
2023-01-25T13:38:21.432Z,2.59
2023-01-25T13:42:28.380Z,2.69
2023-01-25T13:46:30.022Z,2.70
2023-01-25T13:50:40.064Z,2.74
2023-01-25T13:54:46.216Z,2.79
2023-01-25T13:58:48.211Z,2.81
2023-01-25T14:02:55.024Z,2.84
2023-01-25T14:06:59.410Z,2.79
2023-01-25T14:11:01.046Z,2.77
2023-01-25T14:15:17.997Z,2.81
2023-01-25T14:19:29.964Z,2.77
2023-01-25T14:23:32.725Z,2.69
2023-01-25T14:27:35.718Z,2.51
2023-01-25T14:31:37.943Z,2.61
2023-01-25T14:35:43.523Z,2.63
2023-01-25T14:39:52.188Z,2.61
2023-01-25T14:43:56.379Z,2.62
2023-01-25T14:47:59.665Z,2.66
2023-01-25T14:52:07.888Z,2.64
2023-01-25T14:56:45.663Z,2.64
2023-01-25T15:00:54.302Z,2.68
2023-01-25T15:05:10.980Z,2.73
2023-01-25T15:09:36.089Z,2.70
2023-01-25T15:13:37.695Z,2.69
2023-01-25T15:17:47.567Z,2.68
2023-01-25T15:21:49.650Z,2.69
2023-01-25T15:25:59.714Z,2.53
2023-01-25T15:30:01.516Z,2.42
2023-01-25T15:34:07.132Z,2.48
2023-01-25T15:38:12.593Z,2.56
2023-01-25T15:42:15.968Z,2.64
2023-01-25T15:46:26.599Z,2.63
2023-01-25T15:50:29.290Z,2.56
2023-01-25T15:54:30.938Z,2.50
2023-01-25T15:58:45.793Z,2.53
2023-01-25T16:02:47.544Z,2.49
2023-01-25T16:06:51.416Z,2.47
2023-01-25T16:10:53.074Z,2.43
2023-01-25T16:14:54.597Z,2.43
2023-01-25T16:18:56.158Z,2.45
2023-01-25T16:22:57.757Z,2.49
2023-01-25T16:27:00.731Z,2.54
2023-01-25T16:31:02.625Z,2.52
2023-01-25T16:35:04.628Z,2.49
2023-01-25T16:39:10.252Z,2.48
2023-01-25T16:43:11.969Z,2.51
2023-01-25T16:47:14.758Z,2.49
2023-01-25T16:51:21.864Z,2.47
2023-01-25T16:55:23.602Z,2.44
2023-01-25T16:59:25.303Z,2.46
2023-01-25T17:03:26.886Z,2.49
2023-01-25T17:07:28.539Z,2.55
2023-01-25T17:11:31.141Z,2.56
2023-01-25T17:15:34.031Z,2.53
2023-01-25T17:19:35.627Z,2.52
2023-01-25T17:23:37.942Z,2.58
2023-01-25T17:27:39.486Z,2.55
2023-01-25T17:31:42.330Z,2.48
2023-01-25T17:35:44.209Z,2.41
2023-01-25T17:39:45.818Z,2.41
2023-01-25T17:43:52.523Z,2.42
2023-01-25T17:47:54.105Z,2.44
2023-01-25T17:51:55.775Z,2.38
2023-01-25T17:56:02.760Z,2.42
2023-01-25T18:00:06.857Z,2.39
2023-01-25T18:04:17.525Z,2.35
2023-01-25T18:08:19.123Z,2.38
2023-01-25T18:12:20.934Z,2.41
2023-01-25T18:16:24.485Z,2.41
2023-01-25T18:20:26.386Z,2.40
2023-01-25T18:24:34.015Z,2.44
2023-01-25T18:28:36.329Z,2.48
2023-01-25T18:32:38.340Z,2.47
2023-01-25T18:36:39.988Z,2.46
2023-01-25T18:40:43.770Z,2.42
2023-01-25T18:44:48.287Z,2.39
2023-01-25T18:48:51.195Z,2.25
2023-01-25T18:52:53.672Z,2.16
2023-01-25T18:56:55.563Z,2.22
2023-01-25T19:01:11.777Z,2.28
2023-01-25T19:05:14.369Z,2.26
2023-01-25T19:09:15.986Z,2.08
2023-01-25T19:13:17.802Z,2.01
2023-01-25T19:17:19.416Z,2.06
2023-01-25T19:21:26.766Z,2.11
2023-01-25T19:25:30.611Z,2.19
2023-01-25T19:29:32.298Z,2.20
2023-01-25T19:33:34.715Z,2.18
2023-01-25T19:37:36.360Z,2.10
2023-01-25T19:41:40.993Z,2.09
2023-01-25T19:45:42.596Z,2.09
2023-01-25T19:49:44.269Z,2.17
2023-01-25T19:53:48.744Z,2.19
2023-01-25T19:57:50.336Z,2.25
2023-01-25T20:01:52.539Z,2.30
2023-01-25T20:05:58.992Z,2.33
2023-01-25T20:10:00.570Z,2.33
2023-01-25T20:14:05.155Z,2.32
2023-01-25T20:18:06.708Z,2.27
2023-01-25T20:22:08.664Z,2.25
2023-01-25T20:26:18.807Z,2.27
2023-01-25T20:30:20.445Z,2.32
2023-01-25T20:34:23.377Z,2.32
2023-01-25T20:38:29.524Z,2.31
2023-01-25T20:42:31.069Z,2.34
2023-01-25T20:46:34.546Z,2.30
2023-01-25T20:50:37.123Z,2.22
2023-01-25T20:54:38.814Z,2.07
2023-01-25T20:58:41.450Z,1.95
2023-01-25T21:02:43.190Z,1.87
2023-01-25T21:06:44.821Z,1.90
2023-01-25T21:10:54.527Z,1.88
2023-01-25T21:14:56.594Z,1.88
2023-01-25T21:19:00.195Z,1.87
2023-01-25T21:23:02.280Z,1.89
2023-01-25T21:27:03.853Z,1.94
2023-01-25T21:31:15.204Z,1.89
2023-01-25T21:35:16.834Z,1.81
2023-01-25T21:39:18.397Z,1.79
2023-01-25T21:43:20.032Z,1.82
2023-01-25T21:47:30.415Z,1.80
2023-01-25T21:51:35.413Z,1.78
2023-01-25T21:55:36.963Z,1.70
2023-01-25T21:59:40.737Z,1.63
2023-01-25T22:03:42.343Z,1.66
2023-01-25T22:07:44.125Z,1.64
2023-01-25T22:11:46.753Z,1.59
2023-01-25T22:15:48.345Z,1.51
2023-01-25T22:19:49.968Z,1.56
2023-01-25T22:23:52.150Z,1.52
2023-01-25T22:27:59.800Z,1.49
2023-01-25T22:32:02.352Z,1.44
2023-01-25T22:36:04.818Z,1.46
2023-01-25T22:40:07.412Z,1.46
2023-01-25T22:44:10.009Z,1.44
2023-01-25T22:48:12.698Z,1.44
2023-01-25T22:52:14.332Z,1.43
2023-01-25T22:56:21.464Z,1.52
2023-01-25T23:00:23.017Z,1.63
2023-01-25T23:04:24.724Z,1.68
2023-01-25T23:08:29.806Z,1.69
2023-01-25T23:12:32.292Z,1.72
2023-01-25T23:16:35.432Z,1.68
2023-01-25T23:20:37.104Z,1.60
2023-01-25T23:24:38.687Z,1.53
2023-01-25T23:28:40.331Z,1.46
2023-01-25T23:32:49.421Z,1.40
2023-01-25T23:36:50.989Z,1.39
2023-01-25T23:40:52.535Z,1.30
2023-01-25T23:44:54.090Z,1.25
2023-01-25T23:48:55.952Z,1.19
2023-01-25T23:52:57.643Z,1.21
2023-01-25T23:56:59.220Z,1.18
